createdAt,value
2023-02-23T00:00:34.982Z,102.63
2023-02-23T00:03:03.892Z,100.47
2023-02-23T00:05:37.595Z,116.53
2023-02-23T00:08:06.971Z,112.72
2023-02-23T00:10:36.996Z,113.82
2023-02-23T00:13:06.816Z,103.88
2023-02-23T00:15:39.897Z,110.22
2023-02-23T00:18:10.320Z,90.07
2023-02-23T00:20:48.237Z,80.75
2023-02-23T00:23:17.324Z,94.00
2023-02-23T00:25:47.151Z,105.28
2023-02-23T00:28:17.813Z,110.75
2023-02-23T00:30:49.955Z,102.47
2023-02-23T00:33:20.571Z,113.40
2023-02-23T00:35:57.096Z,78.97
2023-02-23T00:38:26.846Z,81.28
2023-02-23T00:40:58.558Z,110.63
2023-02-23T00:43:28.431Z,104.25
2023-02-23T00:46:07.434Z,115.72
2023-02-23T00:48:39.630Z,102.25
2023-02-23T00:51:08.770Z,120.63
2023-02-23T00:53:39.584Z,111.50
2023-02-23T00:56:18.596Z,60.83
2023-02-23T00:58:51.310Z,85.68
2023-02-23T01:01:25.812Z,91.28
2023-02-23T01:04:01.482Z,115.53
2023-02-23T01:06:35.270Z,93.55
2023-02-23T01:09:10.187Z,98.10
2023-02-23T01:11:41.644Z,80.95
2023-02-23T01:14:12.702Z,94.40
2023-02-23T01:16:44.438Z,76.07
2023-02-23T01:19:16.029Z,93.35
2023-02-23T01:21:45.855Z,91.07
2023-02-23T01:24:16.123Z,94.80
2023-02-23T01:26:47.058Z,91.85
2023-02-23T01:29:19.964Z,90.68
2023-02-23T01:31:52.299Z,95.18
2023-02-23T01:34:22.751Z,87.43
2023-02-23T01:36:53.896Z,81.63
2023-02-23T01:39:23.341Z,81.40
2023-02-23T01:41:54.765Z,75.53
2023-02-23T01:45:24.303Z,79.55
2023-02-23T01:47:58.167Z,75.82
2023-02-23T01:50:30.817Z,81.10
2023-02-23T01:53:01.268Z,77.38
2023-02-23T01:55:31.592Z,63.85
2023-02-23T01:58:07.748Z,77.03
2023-02-23T02:00:56.587Z,66.90
2023-02-23T02:03:31.344Z,82.82
2023-02-23T02:06:02.861Z,81.47
2023-02-23T02:08:32.813Z,54.55
2023-02-23T02:11:08.536Z,45.17
2023-02-23T02:13:38.759Z,71.65
2023-02-23T02:16:42.538Z,73.18
2023-02-23T02:19:46.159Z,55.95
2023-02-23T02:22:49.254Z,57.45
2023-02-23T02:25:38.761Z,70.47
2023-02-23T02:28:45.031Z,67.18
2023-02-23T02:31:52.922Z,68.90
2023-02-23T02:34:57.694Z,54.53
2023-02-23T02:37:47.912Z,50.35
2023-02-23T02:40:23.694Z,49.33
2023-02-23T02:43:10.891Z,48.80
2023-02-23T02:45:47.192Z,54.20
2023-02-23T02:48:25.905Z,50.03
2023-02-23T02:50:57.568Z,65.13
2023-02-23T02:53:38.192Z,44.05
2023-02-23T02:56:09.338Z,38.55
2023-02-23T02:58:43.857Z,33.83
2023-02-23T03:01:35.652Z,35.85
2023-02-23T03:04:37.448Z,46.28
2023-02-23T03:07:29.823Z,50.75
2023-02-23T03:10:24.716Z,45.67
2023-02-23T03:13:21.072Z,77.57
2023-02-23T03:19:14.413Z,55.42
2023-02-23T03:22:10.460Z,58.03
2023-02-23T03:25:01.862Z,64.72
2023-02-23T03:28:00.750Z,60.50
2023-02-23T03:30:58.237Z,68.60
2023-02-23T03:33:53.964Z,46.40
2023-02-23T03:36:45.037Z,49.80
2023-02-23T03:39:39.013Z,54.13
2023-02-23T03:42:29.902Z,61.55
2023-02-23T03:45:23.447Z,48.17
2023-02-23T03:48:12.514Z,42.35
2023-02-23T03:51:02.149Z,49.65
2023-02-23T03:53:53.833Z,48.67
2023-02-23T03:56:44.821Z,52.53
2023-02-23T03:59:34.852Z,56.67
2023-02-23T04:02:25.551Z,47.20
2023-02-23T04:05:15.196Z,61.55
2023-02-23T04:08:01.422Z,48.00
2023-02-23T04:10:49.823Z,72.85
2023-02-23T04:13:21.004Z,55.72
2023-02-23T04:15:51.870Z,70.80
2023-02-23T04:18:26.342Z,50.20
2023-02-23T04:20:55.929Z,59.50
2023-02-23T04:23:25.420Z,77.97
2023-02-23T04:25:54.494Z,77.15
2023-02-23T04:28:23.827Z,53.63
2023-02-23T04:30:53.057Z,52.90
2023-02-23T04:33:25.582Z,63.03
2023-02-23T04:35:55.293Z,67.47
2023-02-23T04:38:24.725Z,64.65
2023-02-23T04:40:53.697Z,52.35
2023-02-23T04:43:22.276Z,68.70
2023-02-23T04:45:52.360Z,44.67
2023-02-23T04:48:23.556Z,41.63
2023-02-23T04:50:54.482Z,62.38
2023-02-23T04:53:23.571Z,58.90
2023-02-23T04:55:51.968Z,69.97
2023-02-23T04:58:20.280Z,71.57
2023-02-23T05:00:49.442Z,37.92
2023-02-23T05:03:18.605Z,67.55
2023-02-23T05:05:48.429Z,44.03
2023-02-23T05:08:16.699Z,56.33
2023-02-23T05:10:45.093Z,72.03
2023-02-23T05:13:13.656Z,55.20
2023-02-23T05:15:41.974Z,58.00
2023-02-23T05:18:10.786Z,58.80
2023-02-23T05:20:39.314Z,46.25
2023-02-23T05:23:09.112Z,37.35
2023-02-23T05:25:39.543Z,49.33
2023-02-23T05:28:08.080Z,51.00
2023-02-23T05:30:36.666Z,47.50
2023-02-23T05:33:05.389Z,42.90
2023-02-23T05:35:33.622Z,40.33
2023-02-23T05:38:01.838Z,48.95
2023-02-23T05:40:32.803Z,38.70
2023-02-23T05:43:01.636Z,37.22
2023-02-23T05:45:30.451Z,37.00
2023-02-23T05:47:59.291Z,70.15
2023-02-23T05:50:28.857Z,50.22
2023-02-23T05:52:57.211Z,55.15
2023-02-23T05:55:25.811Z,63.67
2023-02-23T05:57:56.160Z,68.00
2023-02-23T06:00:31.766Z,56.00
2023-02-23T06:03:01.387Z,53.72
2023-02-23T06:05:32.315Z,63.60
2023-02-23T06:08:10.729Z,49.80
2023-02-23T06:10:40.552Z,48.05
2023-02-23T06:13:15.692Z,34.92
2023-02-23T06:15:50.189Z,46.25
2023-02-23T06:18:22.774Z,47.50
2023-02-23T06:20:54.219Z,45.05
2023-02-23T06:23:32.659Z,51.22
2023-02-23T06:26:10.657Z,44.10
2023-02-23T06:28:59.659Z,39.95
2023-02-23T06:31:29.895Z,46.53
2023-02-23T06:34:00.645Z,42.15
2023-02-23T06:36:31.807Z,60.55
2023-02-23T06:39:04.464Z,62.70
2023-02-23T06:41:36.792Z,53.30
2023-02-23T06:44:11.263Z,66.55
2023-02-23T06:46:41.550Z,73.18
2023-02-23T06:49:17.346Z,30.88
2023-02-23T06:51:50.037Z,65.07
2023-02-23T06:54:30.447Z,81.93
2023-02-23T06:57:07.372Z,86.28
2023-02-23T06:59:44.003Z,80.68
2023-02-23T07:02:24.601Z,90.97
2023-02-23T07:05:13.905Z,75.07
2023-02-23T07:08:10.052Z,74.82
2023-02-23T07:10:49.933Z,47.10
2023-02-23T07:13:31.849Z,46.35
2023-02-23T07:16:05.033Z,82.45
2023-02-23T07:18:49.806Z,64.22
2023-02-23T07:21:21.486Z,65.90
2023-02-23T07:23:51.684Z,94.95
2023-02-23T07:26:24.986Z,61.00
2023-02-23T07:28:59.191Z,85.30
2023-02-23T07:31:42.986Z,67.97
2023-02-23T07:34:18.249Z,100.05
2023-02-23T07:36:48.793Z,93.40
2023-02-23T07:39:21.579Z,75.82
2023-02-23T07:41:56.099Z,101.43
2023-02-23T07:44:26.724Z,123.20
2023-02-23T07:47:05.147Z,92.63
2023-02-23T07:49:38.312Z,111.65
2023-02-23T07:52:08.653Z,105.53
2023-02-23T07:54:39.853Z,101.10
2023-02-23T07:57:11.364Z,80.28
2023-02-23T07:59:40.122Z,66.20
2023-02-23T08:02:15.134Z,102.53
2023-02-23T08:04:54.724Z,76.60
2023-02-23T08:07:30.116Z,91.72
2023-02-23T08:10:12.488Z,100.10
2023-02-23T08:12:45.754Z,111.45
2023-02-23T08:15:21.588Z,100.75
2023-02-23T08:17:59.200Z,54.53
2023-02-23T08:20:28.994Z,52.67
2023-02-23T08:23:00.630Z,96.45
2023-02-23T08:25:33.873Z,49.53
2023-02-23T08:28:04.947Z,82.47
2023-02-23T08:30:40.974Z,71.13
2023-02-23T08:33:37.074Z,78.63
2023-02-23T08:36:07.340Z,98.28
2023-02-23T08:38:41.132Z,85.60
2023-02-23T08:41:10.995Z,123.55
2023-02-23T08:43:40.497Z,103.70
2023-02-23T08:46:10.782Z,90.18
2023-02-23T08:48:41.662Z,58.78
2023-02-23T08:51:12.072Z,77.45
2023-02-23T08:53:42.037Z,83.70
2023-02-23T08:56:16.021Z,81.55
2023-02-23T08:58:46.565Z,127.28
2023-02-23T09:01:23.350Z,80.03
2023-02-23T09:04:11.424Z,99.28
2023-02-23T09:06:45.494Z,87.65
2023-02-23T09:09:18.077Z,107.43
2023-02-23T09:11:49.145Z,71.78
2023-02-23T09:14:24.659Z,86.70
2023-02-23T09:19:33.570Z,109.32
2023-02-23T09:22:07.006Z,90.38
2023-02-23T09:24:42.326Z,142.15
2023-02-23T09:27:15.485Z,130.27
2023-02-23T09:29:47.163Z,65.88
2023-02-23T09:32:17.794Z,91.65
2023-02-23T09:34:49.181Z,87.82
2023-02-23T09:37:22.506Z,97.72
2023-02-23T09:39:53.996Z,89.18
2023-02-23T09:42:35.950Z,100.13
2023-02-23T09:45:16.660Z,78.57
2023-02-23T09:48:00.215Z,70.90
2023-02-23T09:50:36.213Z,79.80
2023-02-23T09:53:10.346Z,60.00
2023-02-23T09:55:42.932Z,64.93
2023-02-23T09:58:21.725Z,74.40
2023-02-23T10:01:00.361Z,82.15
2023-02-23T10:03:33.969Z,79.30
2023-02-23T10:06:09.476Z,68.90
2023-02-23T10:08:57.272Z,61.15
2023-02-23T10:11:36.358Z,83.45
2023-02-23T10:14:29.977Z,78.93
2023-02-23T10:17:11.708Z,74.38
2023-02-23T10:19:46.119Z,71.53
2023-02-23T10:22:22.211Z,78.22
2023-02-23T10:24:58.814Z,81.43
2023-02-23T10:27:35.295Z,72.75
2023-02-23T10:30:17.431Z,62.92
2023-02-23T10:32:56.715Z,61.05
2023-02-23T10:35:34.027Z,56.03
2023-02-23T10:38:06.880Z,81.72
2023-02-23T10:40:38.257Z,51.08
2023-02-23T10:43:10.668Z,52.17
2023-02-23T10:45:49.394Z,59.30
2023-02-23T10:48:23.416Z,65.03
2023-02-23T10:51:03.422Z,56.63
2023-02-23T10:53:42.653Z,53.97
2023-02-23T10:56:17.895Z,51.15
2023-02-23T10:58:50.615Z,59.28
2023-02-23T11:02:01.324Z,57.67
2023-02-23T11:04:40.568Z,61.75
2023-02-23T11:07:21.597Z,77.97
2023-02-23T11:10:01.302Z,63.55
2023-02-23T11:12:42.428Z,51.08
2023-02-23T11:15:54.466Z,61.70
2023-02-23T11:18:29.459Z,43.35
2023-02-23T11:21:12.583Z,57.28
2023-02-23T11:26:45.734Z,70.82
2023-02-23T11:29:30.099Z,77.25
2023-02-23T11:32:10.813Z,51.92
2023-02-23T11:34:54.781Z,70.43
2023-02-23T11:37:41.819Z,48.92
2023-02-23T11:40:26.509Z,61.92
2023-02-23T11:43:14.680Z,50.72
2023-02-23T11:45:57.112Z,53.30
2023-02-23T11:48:31.581Z,66.30
2023-02-23T11:51:09.208Z,62.95
2023-02-23T11:53:42.383Z,69.50
2023-02-23T11:56:31.076Z,49.10
2023-02-23T11:59:05.884Z,58.13
2023-02-23T12:01:47.236Z,52.88
2023-02-23T12:04:32.955Z,56.70
2023-02-23T12:07:27.544Z,61.13
2023-02-23T12:10:04.895Z,41.78
2023-02-23T12:12:43.842Z,78.82
2023-02-23T12:15:23.271Z,70.45
2023-02-23T12:18:01.718Z,82.78
2023-02-23T12:20:51.986Z,63.65
2023-02-23T12:23:30.493Z,73.88
2023-02-23T12:26:07.694Z,66.90
2023-02-23T12:28:44.568Z,86.00
2023-02-23T12:31:38.471Z,72.18
2023-02-23T12:34:20.566Z,77.38
2023-02-23T12:36:58.858Z,51.15
2023-02-23T12:39:32.980Z,68.53
2023-02-23T12:42:10.736Z,68.30
2023-02-23T12:44:50.790Z,58.17
2023-02-23T12:47:31.354Z,68.15
2023-02-23T12:50:07.946Z,51.38
2023-02-23T12:52:46.286Z,57.63
2023-02-23T12:55:15.841Z,56.70
2023-02-23T12:57:50.843Z,57.92
2023-02-23T13:00:45.278Z,44.63
2023-02-23T13:03:57.753Z,56.20
2023-02-23T13:06:43.348Z,69.47
2023-02-23T13:09:22.921Z,54.08
2023-02-23T13:12:07.906Z,51.67
2023-02-23T13:15:00.012Z,59.80
2023-02-23T13:17:41.472Z,75.70
2023-02-23T13:20:24.302Z,56.17
2023-02-23T13:23:04.650Z,59.67
2023-02-23T13:25:43.574Z,50.42
2023-02-23T13:28:20.655Z,69.03
2023-02-23T13:30:56.844Z,53.45
2023-02-23T13:33:43.215Z,59.65
2023-02-23T13:36:15.584Z,50.95
2023-02-23T13:38:53.943Z,73.15
2023-02-23T13:41:34.257Z,64.47
2023-02-23T13:44:10.916Z,43.83
2023-02-23T13:46:54.446Z,62.38
2023-02-23T13:49:39.811Z,52.60
2023-02-23T13:52:31.868Z,39.80
2023-02-23T13:55:09.158Z,54.17
2023-02-23T13:57:53.035Z,47.55
2023-02-23T14:00:23.701Z,52.95
2023-02-23T14:03:11.808Z,54.33
2023-02-23T14:05:45.477Z,49.03
2023-02-23T14:08:25.324Z,50.50
2023-02-23T14:11:03.929Z,59.25
2023-02-23T14:13:39.057Z,43.22
2023-02-23T14:16:35.137Z,38.75
2023-02-23T14:22:23.664Z,48.72
2023-02-23T14:25:32.400Z,55.42
2023-02-23T14:28:07.530Z,38.42
2023-02-23T14:30:51.307Z,56.63
2023-02-23T14:33:43.128Z,42.55
2023-02-23T14:36:40.763Z,34.33
2023-02-23T14:39:18.979Z,43.00
2023-02-23T14:41:51.536Z,35.05
2023-02-23T14:44:29.818Z,38.50
2023-02-23T14:47:04.117Z,35.22
2023-02-23T14:49:41.408Z,27.80
2023-02-23T14:52:18.821Z,34.00
2023-02-23T14:54:49.029Z,33.72
2023-02-23T14:57:24.390Z,37.53
2023-02-23T15:00:02.597Z,37.33
2023-02-23T15:02:35.516Z,34.88
2023-02-23T15:05:26.663Z,33.33
2023-02-23T15:07:59.255Z,27.25
2023-02-23T15:10:32.234Z,34.08
2023-02-23T15:13:03.899Z,27.10
2023-02-23T15:15:42.787Z,27.95
2023-02-23T15:18:26.148Z,20.38
2023-02-23T15:20:55.098Z,25.38
2023-02-23T15:23:26.934Z,27.60
2023-02-23T15:25:55.785Z,25.13
2023-02-23T15:28:30.436Z,19.10
2023-02-23T15:31:13.979Z,19.03
2023-02-23T15:33:45.214Z,19.02
2023-02-23T15:36:22.470Z,18.67
2023-02-23T15:38:56.892Z,20.58
2023-02-23T15:41:34.773Z,19.05
2023-02-23T15:44:12.222Z,18.10
2023-02-23T15:46:53.165Z,21.13
2023-02-23T15:49:29.524Z,16.10
2023-02-23T15:52:01.485Z,22.13
2023-02-23T15:54:37.344Z,18.73
2023-02-23T15:57:16.585Z,19.88
2023-02-23T15:59:55.000Z,21.17
2023-02-23T16:02:29.923Z,20.67
2023-02-23T16:05:32.765Z,21.83
2023-02-23T16:08:09.162Z,19.17
2023-02-23T16:10:51.420Z,18.80
2023-02-23T16:13:24.969Z,23.10
2023-02-23T16:16:00.329Z,24.10
2023-02-23T16:21:27.190Z,18.90
2023-02-23T16:24:06.469Z,22.15
2023-02-23T16:26:50.497Z,23.23
2023-02-23T16:29:33.493Z,18.20
2023-02-23T16:32:19.576Z,21.85
2023-02-23T16:35:02.652Z,25.17
2023-02-23T16:37:36.210Z,19.00
2023-02-23T16:40:11.128Z,20.23
2023-02-23T16:42:48.298Z,22.23
2023-02-23T16:45:18.989Z,16.63
2023-02-23T16:48:13.121Z,18.92
2023-02-23T16:50:59.700Z,17.73
2023-02-23T16:53:42.492Z,18.92
2023-02-23T16:56:26.395Z,16.02
2023-02-23T16:59:10.905Z,15.70
2023-02-23T17:01:48.623Z,12.02
2023-02-23T17:04:20.695Z,12.15
2023-02-23T17:06:56.454Z,15.75
2023-02-23T17:09:32.215Z,15.15
2023-02-23T17:12:01.648Z,13.95
2023-02-23T17:14:38.319Z,13.00
2023-02-23T17:17:53.308Z,12.00
2023-02-23T17:20:28.350Z,12.60
2023-02-23T17:23:15.034Z,11.48
2023-02-23T17:26:02.748Z,15.23
2023-02-23T17:28:41.965Z,11.98
2023-02-23T17:31:39.354Z,12.13
2023-02-23T17:34:21.655Z,13.77
2023-02-23T17:37:31.665Z,13.95
2023-02-23T17:40:38.524Z,11.75
2023-02-23T17:43:09.373Z,12.38
2023-02-23T17:45:44.588Z,11.73
2023-02-23T17:48:14.613Z,16.08
2023-02-23T17:50:47.650Z,13.40
2023-02-23T17:53:19.396Z,13.30
2023-02-23T17:56:02.167Z,14.05
2023-02-23T17:58:32.961Z,10.25
2023-02-23T18:01:03.805Z,14.02
2023-02-23T18:03:38.533Z,13.57
2023-02-23T18:06:14.872Z,15.00
2023-02-23T18:08:45.920Z,14.35
2023-02-23T18:11:25.104Z,11.35
2023-02-23T18:13:58.926Z,11.35
2023-02-23T18:16:29.949Z,13.15
2023-02-23T18:19:18.218Z,15.23
2023-02-23T18:22:02.065Z,15.07
2023-02-23T18:24:38.499Z,16.45
2023-02-23T18:27:09.408Z,14.90
2023-02-23T18:29:44.866Z,20.98
2023-02-23T18:35:09.193Z,19.35
2023-02-23T18:37:38.390Z,19.30
2023-02-23T18:40:08.451Z,19.55
2023-02-23T18:42:39.362Z,18.77
2023-02-23T18:45:17.469Z,15.85
2023-02-23T18:47:47.796Z,21.08
2023-02-23T18:50:19.552Z,14.13
2023-02-23T18:52:59.463Z,16.38
2023-02-23T18:55:34.244Z,16.38
2023-02-23T18:58:06.239Z,13.53
2023-02-23T19:00:40.658Z,19.63
2023-02-23T19:03:10.123Z,15.13
2023-02-23T19:05:39.043Z,13.45
2023-02-23T19:08:14.570Z,15.05
2023-02-23T19:13:14.308Z,18.70
2023-02-23T19:15:44.034Z,16.48
2023-02-23T19:18:12.992Z,14.45
2023-02-23T19:20:46.499Z,19.25
2023-02-23T19:23:14.984Z,18.88
2023-02-23T19:25:48.675Z,27.17
2023-02-23T19:28:19.726Z,24.50
2023-02-23T19:30:51.191Z,25.50
2023-02-23T19:33:21.526Z,19.83
2023-02-23T19:35:51.518Z,16.60
2023-02-23T19:38:20.460Z,13.68
2023-02-23T19:40:50.421Z,14.30
2023-02-23T19:43:21.311Z,15.57
2023-02-23T19:45:49.923Z,26.55
2023-02-23T19:48:22.736Z,17.40
2023-02-23T19:51:05.563Z,17.00
2023-02-23T19:53:41.589Z,27.58
2023-02-23T19:56:13.201Z,37.72
2023-02-23T19:58:54.145Z,33.03
2023-02-23T20:01:30.286Z,35.25
2023-02-23T20:04:06.634Z,26.75
2023-02-23T20:06:48.166Z,31.73
2023-02-23T20:09:18.752Z,22.90
2023-02-23T20:12:03.751Z,24.15
2023-02-23T20:14:34.762Z,25.90
2023-02-23T20:17:15.086Z,24.80
2023-02-23T20:19:43.928Z,16.05
2023-02-23T20:22:15.825Z,17.20
2023-02-23T20:24:51.471Z,14.80
2023-02-23T20:27:23.066Z,18.90
2023-02-23T20:29:54.120Z,21.70
2023-02-23T20:32:22.649Z,23.38
2023-02-23T20:34:51.859Z,23.38
2023-02-23T20:37:22.345Z,18.90
2023-02-23T20:39:54.323Z,25.13
2023-02-23T20:42:27.232Z,19.92
2023-02-23T20:45:01.888Z,18.33
2023-02-23T20:47:36.192Z,31.10
2023-02-23T20:50:05.761Z,27.05
2023-02-23T20:52:35.476Z,28.70
2023-02-23T20:55:19.924Z,15.68
2023-02-23T20:57:50.693Z,25.80
2023-02-23T21:00:32.788Z,34.83
2023-02-23T21:03:06.182Z,20.45
2023-02-23T21:05:42.053Z,33.67
2023-02-23T21:08:13.623Z,36.15
2023-02-23T21:10:51.009Z,31.40
2023-02-23T21:13:22.365Z,37.80
2023-02-23T21:16:01.959Z,36.38
2023-02-23T21:18:34.671Z,44.85
2023-02-23T21:21:13.391Z,32.95
2023-02-23T21:23:51.478Z,40.58
2023-02-23T21:26:21.737Z,39.47
2023-02-23T21:29:15.300Z,37.50
2023-02-23T21:32:28.512Z,36.85
2023-02-23T21:35:07.886Z,44.90
2023-02-23T21:37:52.325Z,32.10
2023-02-23T21:40:22.751Z,42.38
2023-02-23T21:43:06.962Z,38.00
2023-02-23T21:45:50.459Z,28.13
2023-02-23T21:48:33.936Z,42.65
2023-02-23T21:51:09.517Z,30.02
2023-02-23T21:54:02.777Z,34.25
2023-02-23T21:57:10.643Z,34.25
2023-02-23T21:59:39.937Z,25.33
2023-02-23T22:02:08.996Z,22.92
2023-02-23T22:05:08.849Z,28.35
2023-02-23T22:07:46.227Z,28.85
2023-02-23T22:10:23.777Z,29.67
2023-02-23T22:12:58.094Z,15.10
2023-02-23T22:15:46.349Z,16.58
2023-02-23T22:18:33.402Z,20.00
2023-02-23T22:21:13.162Z,17.08
2023-02-23T22:23:44.333Z,18.05
2023-02-23T22:26:13.507Z,18.10
2023-02-23T22:28:45.273Z,15.68
2023-02-23T22:31:25.928Z,16.85
2023-02-23T22:34:04.492Z,23.02
2023-02-23T22:36:33.955Z,21.02
2023-02-23T22:39:10.572Z,26.55
2023-02-23T22:41:42.579Z,24.52
2023-02-23T22:44:20.696Z,20.88
2023-02-23T22:47:00.929Z,25.40
2023-02-23T22:49:36.729Z,17.83
2023-02-23T22:52:08.802Z,17.92
2023-02-23T22:54:40.652Z,20.67
2023-02-23T22:57:10.050Z,29.70
2023-02-23T22:59:38.751Z,24.00
2023-02-23T23:02:07.166Z,17.60
2023-02-23T23:04:35.772Z,12.90
2023-02-23T23:07:06.384Z,20.50
2023-02-23T23:09:36.370Z,29.38
2023-02-23T23:12:06.627Z,25.33
2023-02-23T23:14:35.684Z,20.00
2023-02-23T23:17:04.410Z,26.45
2023-02-23T23:19:39.189Z,30.15
2023-02-23T23:22:13.650Z,35.10
2023-02-23T23:24:46.337Z,29.27
2023-02-23T23:27:16.571Z,25.23
2023-02-23T23:29:47.214Z,31.63
2023-02-23T23:32:18.144Z,23.55
2023-02-23T23:34:49.316Z,28.45
2023-02-23T23:37:19.258Z,29.92
2023-02-23T23:39:59.594Z,19.05
2023-02-23T23:42:30.064Z,22.20
2023-02-23T23:44:58.826Z,26.23
2023-02-23T23:47:30.821Z,29.58
2023-02-23T23:49:59.378Z,18.70
2023-02-23T23:52:30.406Z,22.30
2023-02-23T23:54:58.987Z,28.55
2023-02-23T23:57:33.155Z,16.88
